This is the latest recevied weather packets stored in our database for station/object OSTR-WX. If no packets are shown the sender has not sent any weather packets the latest 10 day(s).
| Time | Temp. | Humidity | Pressure | Rain* | Wind** | Luminosity | Snow |
|---|---|---|---|---|---|---|---|
| 1777543918 | 13.33° C | 38% | 1030.7 hPa | - | - | - | - |
| 1777542968 | 12.78° C | 40% | 1031.2 hPa | - | - | - | - |
| 1777542961 | 12.78° C | 40% | 1031.2 hPa | - | - | - | - |
| 1777542961 | 12.78° C | 40% | 1031.2 hPa | - | - | - | - |
| 1777542007 | 12.22° C | 42% | 1031.5 hPa | - | - | - | - |
| 1777542004 | 12.22° C | 42% | 1031.5 hPa | - | - | - | - |
| 1777541053 | 11.67° C | 42% | 1031.5 hPa | - | - | - | - |
| 1777541049 | 11.67° C | 42% | 1031.5 hPa | - | - | - | - |
| 1777541047 | 11.67° C | 42% | 1031.5 hPa | - | - | - | - |
| 1777540093 | 11.67° C | 44% | 1031.6 hPa | - | - | - | - |
| 1777540093 | 11.67° C | 44% | 1031.6 hPa | - | - | - | - |
| 1777539133 | 11.11° C | 45% | 1031.8 hPa | - | - | - | - |
| 1777539133 | 11.11° C | 45% | 1031.8 hPa | - | - | - | - |
| 1777538176 | 10.56° C | 48% | 1032.1 hPa | - | - | - | - |
| 1777537221 | 10° C | 46% | 1032.3 hPa | - | - | - | - |
| 1777537219 | 10° C | 46% | 1032.3 hPa | - | - | - | - |
| 1777536268 | 9.44° C | 50% | 1032.4 hPa | - | - | - | - |
| 1777536265 | 9.44° C | 50% | 1032.4 hPa | - | - | - | - |
| 1777536262 | 9.44° C | 50% | 1032.4 hPa | - | - | - | - |
| 1777535307 | 8.33° C | 55% | 1032.5 hPa | - | - | - | - |
| 1777535305 | 8.33° C | 55% | 1032.5 hPa | - | - | - | - |
| 1777534354 | 7.78° C | 56% | 1032.6 hPa | - | - | - | - |
| 1777534350 | 7.78° C | 56% | 1032.6 hPa | - | - | - | - |
| 1777534348 | 7.78° C | 56% | 1032.6 hPa | - | - | - | - |
| 1777533391 | 6.67° C | 60% | 1032.8 hPa | - | - | - | - |
* Rain since midnight (hover to see other rain measurements)
** Current wind speed in m/s (hover to see current wind gust speed)